sensor_id;sensor_type;location;lat;lon;timestamp;P1;durP1;ratioP1;P2;durP2;ratioP2
20441;SDS011;10380;52.102;20.614;2023-11-19T00:02:26;49.13;;;25.90;;
20441;SDS011;10380;52.102;20.614;2023-11-19T00:04:53;54.23;;;26.23;;
20441;SDS011;10380;52.102;20.614;2023-11-19T00:07:21;50.80;;;26.70;;
20441;SDS011;10380;52.102;20.614;2023-11-19T00:09:51;51.33;;;27.27;;
20441;SDS011;10380;52.102;20.614;2023-11-19T00:12:18;50.07;;;27.27;;
20441;SDS011;10380;52.102;20.614;2023-11-19T00:14:45;53.03;;;29.03;;
20441;SDS011;10380;52.102;20.614;2023-11-19T00:17:12;64.03;;;31.30;;
20441;SDS011;10380;52.102;20.614;2023-11-19T00:19:41;54.73;;;29.63;;
20441;SDS011;10380;52.102;20.614;2023-11-19T00:22:08;54.77;;;27.70;;
20441;SDS011;10380;52.102;20.614;2023-11-19T00:24:35;49.13;;;26.53;;
20441;SDS011;10380;52.102;20.614;2023-11-19T00:27:08;54.37;;;26.47;;
20441;SDS011;10380;52.102;20.614;2023-11-19T00:29:35;55.23;;;28.27;;
20441;SDS011;10380;52.102;20.614;2023-11-19T00:32:02;50.13;;;27.53;;
20441;SDS011;10380;52.102;20.614;2023-11-19T00:34:31;53.13;;;27.73;;
20441;SDS011;10380;52.102;20.614;2023-11-19T00:36:59;51.73;;;26.67;;
20441;SDS011;10380;52.102;20.614;2023-11-19T00:39:26;51.63;;;27.70;;
20441;SDS011;10380;52.102;20.614;2023-11-19T00:41:53;50.63;;;26.33;;
20441;SDS011;10380;52.102;20.614;2023-11-19T00:44:20;55.03;;;29.00;;
20441;SDS011;10380;52.102;20.614;2023-11-19T00:46:48;54.03;;;28.30;;
20441;SDS011;10380;52.102;20.614;2023-11-19T00:49:15;57.17;;;27.47;;
20441;SDS011;10380;52.102;20.614;2023-11-19T00:51:42;58.90;;;28.87;;
20441;SDS011;10380;52.102;20.614;2023-11-19T00:54:09;52.90;;;27.00;;
20441;SDS011;10380;52.102;20.614;2023-11-19T00:56:36;64.03;;;31.17;;
20441;SDS011;10380;52.102;20.614;2023-11-19T00:59:03;54.03;;;27.93;;
20441;SDS011;10380;52.102;20.614;2023-11-19T01:01:30;57.33;;;29.57;;
20441;SDS011;10380;52.102;20.614;2023-11-19T01:03:57;60.03;;;28.77;;
20441;SDS011;10380;52.102;20.614;2023-11-19T01:06:29;57.93;;;27.90;;
20441;SDS011;10380;52.102;20.614;2023-11-19T01:11:27;58.17;;;29.90;;
20441;SDS011;10380;52.102;20.614;2023-11-19T01:13:54;56.53;;;28.93;;
20441;SDS011;10380;52.102;20.614;2023-11-19T01:16:21;54.43;;;30.80;;
20441;SDS011;10380;52.102;20.614;2023-11-19T01:18:49;55.30;;;27.77;;
20441;SDS011;10380;52.102;20.614;2023-11-19T01:21:17;55.70;;;28.90;;
20441;SDS011;10380;52.102;20.614;2023-11-19T01:23:44;58.63;;;29.40;;
20441;SDS011;10380;52.102;20.614;2023-11-19T01:26:17;56.03;;;28.93;;
20441;SDS011;10380;52.102;20.614;2023-11-19T01:28:44;51.60;;;28.00;;
20441;SDS011;10380;52.102;20.614;2023-11-19T01:31:17;49.23;;;26.83;;
20441;SDS011;10380;52.102;20.614;2023-11-19T01:33:45;47.70;;;25.77;;
20441;SDS011;10380;52.102;20.614;2023-11-19T01:36:13;47.97;;;25.00;;
20441;SDS011;10380;52.102;20.614;2023-11-19T01:38:41;44.87;;;23.37;;
20441;SDS011;10380;52.102;20.614;2023-11-19T01:41:08;42.00;;;23.20;;
20441;SDS011;10380;52.102;20.614;2023-11-19T01:43:36;43.07;;;24.87;;
20441;SDS011;10380;52.102;20.614;2023-11-19T01:46:04;40.60;;;21.57;;
20441;SDS011;10380;52.102;20.614;2023-11-19T01:48:33;42.83;;;21.30;;
20441;SDS011;10380;52.102;20.614;2023-11-19T01:51:03;39.13;;;21.53;;
20441;SDS011;10380;52.102;20.614;2023-11-19T01:53:31;47.67;;;23.97;;
20441;SDS011;10380;52.102;20.614;2023-11-19T01:56:00;45.07;;;24.80;;
20441;SDS011;10380;52.102;20.614;2023-11-19T01:58:28;45.50;;;24.37;;
20441;SDS011;10380;52.102;20.614;2023-11-19T02:00:56;48.80;;;25.70;;
20441;SDS011;10380;52.102;20.614;2023-11-19T02:03:24;47.27;;;24.93;;
20441;SDS011;10380;52.102;20.614;2023-11-19T02:05:53;42.93;;;23.70;;
20441;SDS011;10380;52.102;20.614;2023-11-19T02:08:20;47.67;;;25.27;;
20441;SDS011;10380;52.102;20.614;2023-11-19T02:10:47;47.20;;;24.60;;
20441;SDS011;10380;52.102;20.614;2023-11-19T02:13:14;43.67;;;23.83;;
20441;SDS011;10380;52.102;20.614;2023-11-19T02:15:42;45.77;;;22.97;;
20441;SDS011;10380;52.102;20.614;2023-11-19T02:18:23;44.37;;;23.03;;
20441;SDS011;10380;52.102;20.614;2023-11-19T02:20:54;41.10;;;21.70;;
20441;SDS011;10380;52.102;20.614;2023-11-19T02:23:22;44.70;;;22.17;;
20441;SDS011;10380;52.102;20.614;2023-11-19T02:28:32;43.70;;;21.70;;
20441;SDS011;10380;52.102;20.614;2023-11-19T02:31:00;46.30;;;23.50;;
20441;SDS011;10380;52.102;20.614;2023-11-19T02:33:27;39.83;;;20.73;;
20441;SDS011;10380;52.102;20.614;2023-11-19T02:35:56;45.47;;;21.37;;
20441;SDS011;10380;52.102;20.614;2023-11-19T02:38:22;40.33;;;22.30;;
20441;SDS011;10380;52.102;20.614;2023-11-19T02:40:49;41.07;;;21.33;;
20441;SDS011;10380;52.102;20.614;2023-11-19T02:43:17;38.57;;;20.60;;
20441;SDS011;10380;52.102;20.614;2023-11-19T02:45:45;43.20;;;22.30;;
20441;SDS011;10380;52.102;20.614;2023-11-19T02:48:13;42.43;;;21.87;;
20441;SDS011;10380;52.102;20.614;2023-11-19T02:50:42;44.13;;;22.33;;
20441;SDS011;10380;52.102;20.614;2023-11-19T02:53:09;42.97;;;22.03;;
20441;SDS011;10380;52.102;20.614;2023-11-19T02:55:36;40.63;;;20.27;;
20441;SDS011;10380;52.102;20.614;2023-11-19T02:58:06;41.97;;;23.77;;
20441;SDS011;10380;52.102;20.614;2023-11-19T03:00:39;41.20;;;20.63;;
20441;SDS011;10380;52.102;20.614;2023-11-19T03:03:14;43.17;;;21.70;;
20441;SDS011;10380;52.102;20.614;2023-11-19T03:05:47;43.17;;;20.90;;
20441;SDS011;10380;52.102;20.614;2023-11-19T03:08:15;42.90;;;22.53;;
20441;SDS011;10380;52.102;20.614;2023-11-19T03:10:45;42.50;;;23.27;;
20441;SDS011;10380;52.102;20.614;2023-11-19T03:13:13;42.17;;;21.83;;
20441;SDS011;10380;52.102;20.614;2023-11-19T03:15:40;47.80;;;23.13;;
20441;SDS011;10380;52.102;20.614;2023-11-19T03:18:09;41.70;;;24.47;;
20441;SDS011;10380;52.102;20.614;2023-11-19T03:20:36;46.80;;;23.50;;
20441;SDS011;10380;52.102;20.614;2023-11-19T03:23:03;44.77;;;21.73;;
20441;SDS011;10380;52.102;20.614;2023-11-19T03:25:31;42.17;;;22.87;;
20441;SDS011;10380;52.102;20.614;2023-11-19T03:28:03;39.17;;;21.03;;
20441;SDS011;10380;52.102;20.614;2023-11-19T03:30:31;40.83;;;20.97;;
20441;SDS011;10380;52.102;20.614;2023-11-19T03:33:00;38.43;;;20.87;;
20441;SDS011;10380;52.102;20.614;2023-11-19T03:35:28;45.00;;;22.17;;
20441;SDS011;10380;52.102;20.614;2023-11-19T03:37:55;36.07;;;19.57;;
20441;SDS011;10380;52.102;20.614;2023-11-19T03:40:22;36.60;;;20.50;;
20441;SDS011;10380;52.102;20.614;2023-11-19T03:42:50;39.63;;;19.53;;
20441;SDS011;10380;52.102;20.614;2023-11-19T03:45:17;39.17;;;20.13;;
20441;SDS011;10380;52.102;20.614;2023-11-19T03:47:45;35.97;;;19.90;;
20441;SDS011;10380;52.102;20.614;2023-11-19T03:50:11;40.30;;;21.47;;
20441;SDS011;10380;52.102;20.614;2023-11-19T03:52:39;40.10;;;20.47;;
20441;SDS011;10380;52.102;20.614;2023-11-19T03:55:09;40.33;;;21.13;;
20441;SDS011;10380;52.102;20.614;2023-11-19T03:57:38;38.30;;;20.27;;
20441;SDS011;10380;52.102;20.614;2023-11-19T04:00:06;43.87;;;21.70;;
20441;SDS011;10380;52.102;20.614;2023-11-19T04:02:37;38.83;;;20.10;;
20441;SDS011;10380;52.102;20.614;2023-11-19T04:05:04;41.20;;;20.30;;
20441;SDS011;10380;52.102;20.614;2023-11-19T04:07:31;38.53;;;20.20;;
20441;SDS011;10380;52.102;20.614;2023-11-19T04:09:59;40.30;;;20.13;;
20441;SDS011;10380;52.102;20.614;2023-11-19T04:12:26;40.10;;;18.87;;
20441;SDS011;10380;52.102;20.614;2023-11-19T04:14:53;38.67;;;20.60;;
20441;SDS011;10380;52.102;20.614;2023-11-19T04:17:23;38.00;;;19.40;;
20441;SDS011;10380;52.102;20.614;2023-11-19T04:19:50;37.73;;;19.47;;
20441;SDS011;10380;52.102;20.614;2023-11-19T04:22:17;39.63;;;21.83;;
20441;SDS011;10380;52.102;20.614;2023-11-19T04:24:44;40.10;;;19.93;;
20441;SDS011;10380;52.102;20.614;2023-11-19T04:27:12;37.63;;;21.13;;
20441;SDS011;10380;52.102;20.614;2023-11-19T04:29:40;41.87;;;21.60;;
20441;SDS011;10380;52.102;20.614;2023-11-19T04:32:07;37.17;;;20.33;;
20441;SDS011;10380;52.102;20.614;2023-11-19T04:34:35;42.53;;;20.73;;
20441;SDS011;10380;52.102;20.614;2023-11-19T04:37:03;38.57;;;20.37;;
20441;SDS011;10380;52.102;20.614;2023-11-19T04:39:34;35.50;;;19.83;;
20441;SDS011;10380;52.102;20.614;2023-11-19T04:42:01;37.43;;;20.53;;
20441;SDS011;10380;52.102;20.614;2023-11-19T04:44:29;39.83;;;20.93;;
20441;SDS011;10380;52.102;20.614;2023-11-19T04:46:56;38.30;;;20.27;;
20441;SDS011;10380;52.102;20.614;2023-11-19T04:49:24;40.83;;;20.23;;
20441;SDS011;10380;52.102;20.614;2023-11-19T04:51:53;37.93;;;19.87;;
20441;SDS011;10380;52.102;20.614;2023-11-19T04:54:20;39.27;;;19.27;;
20441;SDS011;10380;52.102;20.614;2023-11-19T04:56:49;35.53;;;19.97;;
20441;SDS011;10380;52.102;20.614;2023-11-19T04:59:16;36.57;;;20.37;;
20441;SDS011;10380;52.102;20.614;2023-11-19T05:01:46;42.47;;;21.17;;
20441;SDS011;10380;52.102;20.614;2023-11-19T05:04:14;37.37;;;19.57;;
20441;SDS011;10380;52.102;20.614;2023-11-19T05:06:43;40.83;;;19.40;;
20441;SDS011;10380;52.102;20.614;2023-11-19T05:09:10;38.33;;;20.57;;
20441;SDS011;10380;52.102;20.614;2023-11-19T05:11:39;38.40;;;20.83;;
20441;SDS011;10380;52.102;20.614;2023-11-19T05:14:09;39.27;;;20.17;;
20441;SDS011;10380;52.102;20.614;2023-11-19T05:16:37;41.27;;;20.97;;
20441;SDS011;10380;52.102;20.614;2023-11-19T05:19:07;39.70;;;20.93;;
20441;SDS011;10380;52.102;20.614;2023-11-19T05:21:35;38.87;;;20.20;;
20441;SDS011;10380;52.102;20.614;2023-11-19T05:24:02;39.97;;;20.80;;
20441;SDS011;10380;52.102;20.614;2023-11-19T05:26:33;42.83;;;21.30;;
20441;SDS011;10380;52.102;20.614;2023-11-19T05:29:00;40.27;;;21.83;;
20441;SDS011;10380;52.102;20.614;2023-11-19T05:31:27;42.13;;;19.77;;
20441;SDS011;10380;52.102;20.614;2023-11-19T05:33:54;39.57;;;21.43;;
20441;SDS011;10380;52.102;20.614;2023-11-19T05:36:21;40.83;;;20.70;;
20441;SDS011;10380;52.102;20.614;2023-11-19T05:38:49;37.60;;;19.70;;
20441;SDS011;10380;52.102;20.614;2023-11-19T05:41:16;36.80;;;19.67;;
20441;SDS011;10380;52.102;20.614;2023-11-19T05:43:43;35.67;;;19.83;;
20441;SDS011;10380;52.102;20.614;2023-11-19T05:46:11;43.63;;;20.43;;
20441;SDS011;10380;52.102;20.614;2023-11-19T05:48:42;35.57;;;18.50;;
20441;SDS011;10380;52.102;20.614;2023-11-19T05:51:13;35.50;;;18.73;;
20441;SDS011;10380;52.102;20.614;2023-11-19T05:53:43;35.30;;;18.03;;
20441;SDS011;10380;52.102;20.614;2023-11-19T05:56:12;30.77;;;18.40;;
20441;SDS011;10380;52.102;20.614;2023-11-19T05:58:42;31.03;;;17.50;;
20441;SDS011;10380;52.102;20.614;2023-11-19T06:01:11;35.70;;;18.87;;
20441;SDS011;10380;52.102;20.614;2023-11-19T06:03:38;34.40;;;19.03;;
20441;SDS011;10380;52.102;20.614;2023-11-19T06:06:06;30.87;;;17.40;;
20441;SDS011;10380;52.102;20.614;2023-11-19T06:08:33;30.10;;;17.20;;
20441;SDS011;10380;52.102;20.614;2023-11-19T06:11:00;30.97;;;16.80;;
20441;SDS011;10380;52.102;20.614;2023-11-19T06:13:28;30.57;;;16.50;;
20441;SDS011;10380;52.102;20.614;2023-11-19T06:15:57;30.67;;;17.00;;
20441;SDS011;10380;52.102;20.614;2023-11-19T06:18:26;28.13;;;15.27;;
20441;SDS011;10380;52.102;20.614;2023-11-19T06:20:54;30.37;;;16.53;;
20441;SDS011;10380;52.102;20.614;2023-11-19T06:23:21;31.63;;;15.93;;
20441;SDS011;10380;52.102;20.614;2023-11-19T06:25:48;28.73;;;15.83;;
20441;SDS011;10380;52.102;20.614;2023-11-19T06:28:15;24.80;;;15.37;;
20441;SDS011;10380;52.102;20.614;2023-11-19T06:30:42;27.03;;;16.03;;
20441;SDS011;10380;52.102;20.614;2023-11-19T06:33:14;26.97;;;15.73;;
20441;SDS011;10380;52.102;20.614;2023-11-19T06:35:41;25.90;;;15.13;;
20441;SDS011;10380;52.102;20.614;2023-11-19T06:38:08;25.13;;;13.87;;
20441;SDS011;10380;52.102;20.614;2023-11-19T06:40:35;20.50;;;13.50;;
20441;SDS011;10380;52.102;20.614;2023-11-19T06:43:04;28.87;;;16.60;;
20441;SDS011;10380;52.102;20.614;2023-11-19T06:45:35;26.20;;;14.03;;
20441;SDS011;10380;52.102;20.614;2023-11-19T06:48:04;30.37;;;17.00;;
20441;SDS011;10380;52.102;20.614;2023-11-19T06:50:32;28.33;;;14.40;;
20441;SDS011;10380;52.102;20.614;2023-11-19T06:52:59;28.07;;;15.60;;
20441;SDS011;10380;52.102;20.614;2023-11-19T06:55:26;34.50;;;17.43;;
20441;SDS011;10380;52.102;20.614;2023-11-19T06:57:54;30.10;;;16.00;;
20441;SDS011;10380;52.102;20.614;2023-11-19T07:00:21;32.73;;;15.57;;
20441;SDS011;10380;52.102;20.614;2023-11-19T07:02:49;25.83;;;15.97;;
20441;SDS011;10380;52.102;20.614;2023-11-19T07:05:17;27.77;;;14.90;;
20441;SDS011;10380;52.102;20.614;2023-11-19T07:07:45;24.87;;;13.93;;
20441;SDS011;10380;52.102;20.614;2023-11-19T07:10:13;28.87;;;13.53;;
20441;SDS011;10380;52.102;20.614;2023-11-19T07:12:40;38.30;;;18.80;;
20441;SDS011;10380;52.102;20.614;2023-11-19T07:15:08;27.30;;;14.77;;
20441;SDS011;10380;52.102;20.614;2023-11-19T07:17:37;30.87;;;16.37;;
20441;SDS011;10380;52.102;20.614;2023-11-19T07:20:06;26.43;;;14.67;;
20441;SDS011;10380;52.102;20.614;2023-11-19T07:22:34;30.03;;;17.10;;
20441;SDS011;10380;52.102;20.614;2023-11-19T07:25:01;27.93;;;15.63;;
20441;SDS011;10380;52.102;20.614;2023-11-19T07:27:28;31.60;;;16.23;;
20441;SDS011;10380;52.102;20.614;2023-11-19T07:29:55;31.37;;;16.77;;
20441;SDS011;10380;52.102;20.614;2023-11-19T07:32:23;24.03;;;14.10;;
20441;SDS011;10380;52.102;20.614;2023-11-19T07:34:50;25.73;;;15.00;;
20441;SDS011;10380;52.102;20.614;2023-11-19T07:37:17;25.73;;;15.30;;
20441;SDS011;10380;52.102;20.614;2023-11-19T07:39:46;25.50;;;15.23;;
20441;SDS011;10380;52.102;20.614;2023-11-19T07:42:13;21.40;;;13.83;;
20441;SDS011;10380;52.102;20.614;2023-11-19T07:44:40;23.07;;;13.80;;
20441;SDS011;10380;52.102;20.614;2023-11-19T07:47:08;19.03;;;14.07;;
20441;SDS011;10380;52.102;20.614;2023-11-19T07:49:35;22.70;;;12.93;;
20441;SDS011;10380;52.102;20.614;2023-11-19T07:52:02;23.03;;;14.50;;
20441;SDS011;10380;52.102;20.614;2023-11-19T07:54:29;21.87;;;12.97;;
20441;SDS011;10380;52.102;20.614;2023-11-19T07:56:57;20.03;;;13.27;;
20441;SDS011;10380;52.102;20.614;2023-11-19T07:59:24;20.27;;;12.00;;
20441;SDS011;10380;52.102;20.614;2023-11-19T08:01:51;22.63;;;12.87;;
20441;SDS011;10380;52.102;20.614;2023-11-19T08:04:18;22.97;;;13.33;;
20441;SDS011;10380;52.102;20.614;2023-11-19T08:06:46;20.63;;;12.83;;
20441;SDS011;10380;52.102;20.614;2023-11-19T08:09:13;17.60;;;10.63;;
20441;SDS011;10380;52.102;20.614;2023-11-19T08:11:41;22.83;;;13.13;;
20441;SDS011;10380;52.102;20.614;2023-11-19T08:14:08;22.83;;;13.77;;
20441;SDS011;10380;52.102;20.614;2023-11-19T08:16:36;26.90;;;15.00;;
20441;SDS011;10380;52.102;20.614;2023-11-19T08:19:06;22.47;;;13.53;;
20441;SDS011;10380;52.102;20.614;2023-11-19T08:21:33;26.17;;;15.03;;
20441;SDS011;10380;52.102;20.614;2023-11-19T08:24:00;26.37;;;14.90;;
20441;SDS011;10380;52.102;20.614;2023-11-19T08:26:27;25.17;;;15.57;;
20441;SDS011;10380;52.102;20.614;2023-11-19T08:28:54;30.50;;;16.07;;
20441;SDS011;10380;52.102;20.614;2023-11-19T08:31:21;26.57;;;15.40;;
20441;SDS011;10380;52.102;20.614;2023-11-19T08:33:48;30.83;;;17.43;;
20441;SDS011;10380;52.102;20.614;2023-11-19T08:36:16;30.43;;;18.53;;
20441;SDS011;10380;52.102;20.614;2023-11-19T08:38:46;32.53;;;17.17;;
20441;SDS011;10380;52.102;20.614;2023-11-19T08:41:15;26.80;;;16.27;;
20441;SDS011;10380;52.102;20.614;2023-11-19T08:43:44;28.73;;;16.80;;
20441;SDS011;10380;52.102;20.614;2023-11-19T08:46:12;25.37;;;16.23;;
20441;SDS011;10380;52.102;20.614;2023-11-19T08:48:42;30.20;;;19.50;;
20441;SDS011;10380;52.102;20.614;2023-11-19T08:51:09;28.37;;;20.23;;
20441;SDS011;10380;52.102;20.614;2023-11-19T08:53:36;29.47;;;21.30;;
20441;SDS011;10380;52.102;20.614;2023-11-19T08:56:03;26.10;;;16.90;;
20441;SDS011;10380;52.102;20.614;2023-11-19T08:58:31;21.50;;;14.83;;
20441;SDS011;10380;52.102;20.614;2023-11-19T09:00:58;23.20;;;14.53;;
20441;SDS011;10380;52.102;20.614;2023-11-19T09:03:26;22.43;;;14.30;;
20441;SDS011;10380;52.102;20.614;2023-11-19T09:05:53;25.97;;;14.83;;
20441;SDS011;10380;52.102;20.614;2023-11-19T09:08:20;21.50;;;13.63;;
20441;SDS011;10380;52.102;20.614;2023-11-19T09:10:47;20.13;;;13.27;;
20441;SDS011;10380;52.102;20.614;2023-11-19T09:13:14;19.73;;;13.93;;
20441;SDS011;10380;52.102;20.614;2023-11-19T09:15:41;22.50;;;13.90;;
20441;SDS011;10380;52.102;20.614;2023-11-19T09:18:09;22.57;;;14.47;;
20441;SDS011;10380;52.102;20.614;2023-11-19T09:20:36;23.00;;;15.07;;
20441;SDS011;10380;52.102;20.614;2023-11-19T09:23:05;21.83;;;14.20;;
20441;SDS011;10380;52.102;20.614;2023-11-19T09:25:33;22.63;;;14.43;;
20441;SDS011;10380;52.102;20.614;2023-11-19T09:28:03;21.13;;;14.77;;
20441;SDS011;10380;52.102;20.614;2023-11-19T09:30:30;23.10;;;16.13;;
20441;SDS011;10380;52.102;20.614;2023-11-19T09:33:00;21.90;;;14.80;;
20441;SDS011;10380;52.102;20.614;2023-11-19T09:35:29;21.60;;;13.97;;
20441;SDS011;10380;52.102;20.614;2023-11-19T09:37:56;26.30;;;15.27;;
20441;SDS011;10380;52.102;20.614;2023-11-19T09:40:23;29.23;;;17.00;;
20441;SDS011;10380;52.102;20.614;2023-11-19T09:42:50;23.03;;;15.60;;
20441;SDS011;10380;52.102;20.614;2023-11-19T09:45:17;21.00;;;14.40;;
20441;SDS011;10380;52.102;20.614;2023-11-19T09:47:47;21.97;;;14.67;;
20441;SDS011;10380;52.102;20.614;2023-11-19T09:50:19;23.37;;;14.87;;
20441;SDS011;10380;52.102;20.614;2023-11-19T09:52:47;21.40;;;13.63;;
20441;SDS011;10380;52.102;20.614;2023-11-19T09:55:14;20.43;;;13.07;;
20441;SDS011;10380;52.102;20.614;2023-11-19T09:57:42;23.67;;;14.73;;
20441;SDS011;10380;52.102;20.614;2023-11-19T10:00:13;25.17;;;15.60;;
20441;SDS011;10380;52.102;20.614;2023-11-19T10:02:42;23.03;;;15.90;;
20441;SDS011;10380;52.102;20.614;2023-11-19T10:05:13;20.63;;;13.67;;
20441;SDS011;10380;52.102;20.614;2023-11-19T10:07:42;26.43;;;14.57;;
20441;SDS011;10380;52.102;20.614;2023-11-19T10:10:11;19.07;;;11.80;;
20441;SDS011;10380;52.102;20.614;2023-11-19T10:12:47;18.87;;;12.20;;
20441;SDS011;10380;52.102;20.614;2023-11-19T10:15:20;22.53;;;12.27;;
20441;SDS011;10380;52.102;20.614;2023-11-19T10:17:48;18.43;;;12.07;;
20441;SDS011;10380;52.102;20.614;2023-11-19T10:20:16;18.80;;;13.47;;
20441;SDS011;10380;52.102;20.614;2023-11-19T10:22:43;25.93;;;15.90;;
20441;SDS011;10380;52.102;20.614;2023-11-19T10:25:28;19.83;;;13.57;;
20441;SDS011;10380;52.102;20.614;2023-11-19T10:27:56;20.40;;;12.97;;
20441;SDS011;10380;52.102;20.614;2023-11-19T10:33:09;20.47;;;12.33;;
20441;SDS011;10380;52.102;20.614;2023-11-19T10:35:53;19.47;;;12.90;;
20441;SDS011;10380;52.102;20.614;2023-11-19T10:38:25;23.30;;;13.30;;
20441;SDS011;10380;52.102;20.614;2023-11-19T10:40:53;21.67;;;13.17;;
20441;SDS011;10380;52.102;20.614;2023-11-19T10:43:23;21.40;;;13.40;;
20441;SDS011;10380;52.102;20.614;2023-11-19T10:45:51;24.97;;;13.63;;
20441;SDS011;10380;52.102;20.614;2023-11-19T10:48:18;20.87;;;13.13;;
20441;SDS011;10380;52.102;20.614;2023-11-19T10:50:49;22.70;;;13.40;;
20441;SDS011;10380;52.102;20.614;2023-11-19T10:53:23;24.63;;;16.27;;
20441;SDS011;10380;52.102;20.614;2023-11-19T10:55:53;22.60;;;14.63;;
20441;SDS011;10380;52.102;20.614;2023-11-19T10:58:25;21.47;;;14.17;;
20441;SDS011;10380;52.102;20.614;2023-11-19T11:00:57;23.07;;;14.33;;
20441;SDS011;10380;52.102;20.614;2023-11-19T11:03:29;24.37;;;15.17;;
20441;SDS011;10380;52.102;20.614;2023-11-19T11:06:03;21.23;;;13.60;;
20441;SDS011;10380;52.102;20.614;2023-11-19T11:08:30;22.40;;;14.20;;
20441;SDS011;10380;52.102;20.614;2023-11-19T11:10:58;20.50;;;12.80;;
20441;SDS011;10380;52.102;20.614;2023-11-19T11:13:26;25.83;;;15.70;;
20441;SDS011;10380;52.102;20.614;2023-11-19T11:15:57;28.57;;;17.17;;
20441;SDS011;10380;52.102;20.614;2023-11-19T11:18:25;24.53;;;15.67;;
20441;SDS011;10380;52.102;20.614;2023-11-19T11:20:54;20.83;;;14.57;;
20441;SDS011;10380;52.102;20.614;2023-11-19T11:26:29;20.77;;;13.60;;
20441;SDS011;10380;52.102;20.614;2023-11-19T11:31:44;22.30;;;13.70;;
20441;SDS011;10380;52.102;20.614;2023-11-19T11:39:45;28.53;;;16.23;;
20441;SDS011;10380;52.102;20.614;2023-11-19T11:50:13;20.67;;;13.53;;
20441;SDS011;10380;52.102;20.614;2023-11-19T11:58:05;20.23;;;11.87;;
20441;SDS011;10380;52.102;20.614;2023-11-19T12:00:33;19.20;;;13.90;;
20441;SDS011;10380;52.102;20.614;2023-11-19T12:03:05;20.03;;;12.40;;
20441;SDS011;10380;52.102;20.614;2023-11-19T12:05:39;20.87;;;12.90;;
20441;SDS011;10380;52.102;20.614;2023-11-19T12:08:13;19.23;;;12.67;;
20441;SDS011;10380;52.102;20.614;2023-11-19T12:13:16;25.93;;;15.90;;
20441;SDS011;10380;52.102;20.614;2023-11-19T12:18:28;22.43;;;14.40;;
20441;SDS011;10380;52.102;20.614;2023-11-19T12:20:57;20.70;;;14.20;;
20441;SDS011;10380;52.102;20.614;2023-11-19T12:23:31;19.17;;;12.57;;
20441;SDS011;10380;52.102;20.614;2023-11-19T12:25:59;24.63;;;16.80;;
20441;SDS011;10380;52.102;20.614;2023-11-19T12:28:26;20.43;;;13.00;;
20441;SDS011;10380;52.102;20.614;2023-11-19T12:30:54;22.07;;;14.23;;
20441;SDS011;10380;52.102;20.614;2023-11-19T12:33:37;21.80;;;14.07;;
20441;SDS011;10380;52.102;20.614;2023-11-19T12:36:04;26.93;;;17.30;;
20441;SDS011;10380;52.102;20.614;2023-11-19T12:38:32;26.77;;;15.70;;
20441;SDS011;10380;52.102;20.614;2023-11-19T12:41:03;25.97;;;13.87;;
20441;SDS011;10380;52.102;20.614;2023-11-19T12:43:34;26.47;;;13.63;;
20441;SDS011;10380;52.102;20.614;2023-11-19T12:46:17;25.87;;;14.43;;
20441;SDS011;10380;52.102;20.614;2023-11-19T12:48:47;22.80;;;13.23;;
20441;SDS011;10380;52.102;20.614;2023-11-19T12:51:17;23.57;;;14.00;;
20441;SDS011;10380;52.102;20.614;2023-11-19T12:53:51;22.20;;;13.73;;
20441;SDS011;10380;52.102;20.614;2023-11-19T12:56:24;22.10;;;13.27;;
20441;SDS011;10380;52.102;20.614;2023-11-19T12:58:51;24.80;;;15.00;;
20441;SDS011;10380;52.102;20.614;2023-11-19T13:01:18;18.63;;;13.27;;
20441;SDS011;10380;52.102;20.614;2023-11-19T13:03:47;23.57;;;13.80;;
20441;SDS011;10380;52.102;20.614;2023-11-19T13:06:18;24.63;;;15.27;;
20441;SDS011;10380;52.102;20.614;2023-11-19T13:08:48;25.90;;;14.93;;
20441;SDS011;10380;52.102;20.614;2023-11-19T13:11:34;26.03;;;16.07;;
20441;SDS011;10380;52.102;20.614;2023-11-19T13:14:03;27.70;;;14.93;;
20441;SDS011;10380;52.102;20.614;2023-11-19T13:16:32;20.33;;;14.57;;
20441;SDS011;10380;52.102;20.614;2023-11-19T13:19:00;21.47;;;14.47;;
20441;SDS011;10380;52.102;20.614;2023-11-19T13:21:27;21.70;;;14.07;;
20441;SDS011;10380;52.102;20.614;2023-11-19T13:23:55;25.90;;;14.77;;
20441;SDS011;10380;52.102;20.614;2023-11-19T13:26:22;24.60;;;13.47;;
20441;SDS011;10380;52.102;20.614;2023-11-19T13:28:49;19.73;;;13.37;;
20441;SDS011;10380;52.102;20.614;2023-11-19T13:31:17;20.90;;;12.70;;
20441;SDS011;10380;52.102;20.614;2023-11-19T13:33:45;25.33;;;14.27;;
20441;SDS011;10380;52.102;20.614;2023-11-19T13:36:12;21.80;;;14.40;;
20441;SDS011;10380;52.102;20.614;2023-11-19T13:38:42;36.23;;;20.33;;
20441;SDS011;10380;52.102;20.614;2023-11-19T13:41:13;28.63;;;16.87;;
20441;SDS011;10380;52.102;20.614;2023-11-19T13:43:40;27.63;;;17.90;;
20441;SDS011;10380;52.102;20.614;2023-11-19T13:46:09;25.87;;;15.53;;
20441;SDS011;10380;52.102;20.614;2023-11-19T13:48:39;25.07;;;15.40;;
20441;SDS011;10380;52.102;20.614;2023-11-19T13:51:06;32.37;;;19.00;;
20441;SDS011;10380;52.102;20.614;2023-11-19T13:53:33;25.53;;;16.87;;
20441;SDS011;10380;52.102;20.614;2023-11-19T13:56:03;27.33;;;17.43;;
20441;SDS011;10380;52.102;20.614;2023-11-19T13:58:31;33.47;;;18.33;;
20441;SDS011;10380;52.102;20.614;2023-11-19T14:00:58;26.37;;;17.97;;
20441;SDS011;10380;52.102;20.614;2023-11-19T14:03:25;35.47;;;21.27;;
20441;SDS011;10380;52.102;20.614;2023-11-19T14:05:52;36.87;;;22.57;;
20441;SDS011;10380;52.102;20.614;2023-11-19T14:08:21;28.27;;;17.73;;
20441;SDS011;10380;52.102;20.614;2023-11-19T14:10:51;29.37;;;17.50;;
20441;SDS011;10380;52.102;20.614;2023-11-19T14:13:22;25.77;;;16.13;;
20441;SDS011;10380;52.102;20.614;2023-11-19T14:15:50;29.60;;;17.90;;
20441;SDS011;10380;52.102;20.614;2023-11-19T14:18:17;28.90;;;18.53;;
20441;SDS011;10380;52.102;20.614;2023-11-19T14:20:44;35.13;;;21.50;;
20441;SDS011;10380;52.102;20.614;2023-11-19T14:23:12;37.27;;;22.17;;
20441;SDS011;10380;52.102;20.614;2023-11-19T14:25:39;32.10;;;19.50;;
20441;SDS011;10380;52.102;20.614;2023-11-19T14:28:06;29.23;;;18.20;;
20441;SDS011;10380;52.102;20.614;2023-11-19T14:30:34;35.27;;;19.33;;
20441;SDS011;10380;52.102;20.614;2023-11-19T14:33:01;47.80;;;25.73;;
20441;SDS011;10380;52.102;20.614;2023-11-19T14:35:30;46.07;;;25.53;;
20441;SDS011;10380;52.102;20.614;2023-11-19T14:37:59;45.37;;;24.67;;
20441;SDS011;10380;52.102;20.614;2023-11-19T14:40:26;38.27;;;22.87;;
20441;SDS011;10380;52.102;20.614;2023-11-19T14:42:56;36.37;;;20.47;;
20441;SDS011;10380;52.102;20.614;2023-11-19T14:45:23;31.93;;;18.47;;
20441;SDS011;10380;52.102;20.614;2023-11-19T14:47:51;34.97;;;19.50;;
20441;SDS011;10380;52.102;20.614;2023-11-19T14:50:19;33.23;;;20.03;;
20441;SDS011;10380;52.102;20.614;2023-11-19T14:52:46;32.13;;;18.03;;
20441;SDS011;10380;52.102;20.614;2023-11-19T14:55:13;30.40;;;18.53;;